James, Iowa
Current Conditions -  °F | °C
As of 2:01 AM on Saturday 20 Dec 2014 (Local Time) from KSUX Reporting Station
Haze Haze  
Wind Chill: 23°   Ceiling: 1400
Heat Index: 32°   Visibility: 5mi
Dew Point: 29°   Wind: 13mph
Humidity: 88%   Direction: 160°SSE
Pressure: 30.1"   Gusts: NA
Location:  42.5567°N, 96.3605°W
Report Text: KSUX 200801Z 16011KT 5SM BR OVC014 00/M02 A3010 RMK AO2 T00001017
Loading
Personal Weather Stations






























Interactive Weather Map New forecast layout! Learn more

10-Day Weather Forecast

Advertisements
Track Severe Weather on mobile